Time;durP1;ratioP1;P1;durP2;ratioP2;P2;SDS_P1;SDS_P2;PMS_P1;PMS_P2;Temp;Humidity;BMP_temperature;BMP_pressure;BME280_temperature;BME280_humidity;BME280_pressure;Samples;Min_cycle;Max_cycle;Signal;HPM_P1;HPM_P2
2022/11/12 00:01:10;;;;;;;;;;;4.70;99.40;;;;;;5069225;28;20379;-72
2022/11/12 00:03:35;;;;;;;;;;;4.70;99.30;;;;;;5069586;28;19959;-71
2022/11/12 00:06:01;;;;;;;;;;;4.60;99.30;;;;;;5071921;28;19921;-72
2022/11/12 00:08:26;;;;;;;;;;;4.80;99.50;;;;;;5072862;28;19923;-71
2022/11/12 00:10:52;;;;;;;;;;;4.80;99.50;;;;;;5060633;28;19920;-76
2022/11/12 00:13:17;;;;;;;;;;;4.70;99.30;;;;;;5067599;28;19920;-72
2022/11/12 00:15:44;;;;;;;;;;;4.80;99.50;;;;;;5067836;28;20253;-73
2022/11/12 00:18:10;;;;;;;;;;;4.80;99.50;;;;;;5075054;28;20262;-71
2022/11/12 00:20:35;;;;;;;;;;;4.70;99.40;;;;;;5073064;28;19961;-72
2022/11/12 00:23:01;;;;;;;;;;;4.80;99.40;;;;;;5079424;28;20033;-72
2022/11/12 00:25:27;;;;;;;;;;;4.70;99.40;;;;;;5072622;28;19955;-72
2022/11/12 00:27:52;;;;;;;;;;;4.70;99.50;;;;;;5068860;28;20092;-72
2022/11/12 00:30:18;;;;;;;;;;;4.80;99.60;;;;;;5069499;28;20117;-71
2022/11/12 00:32:43;;;;;;;;;;;4.80;99.60;;;;;;5069483;28;19920;-72
2022/11/12 00:35:09;;;;;;;;;;;4.90;99.60;;;;;;5056338;28;19913;-76
2022/11/12 00:37:34;;;;;;;;;;;4.70;99.20;;;;;;5069517;28;19916;-72
2022/11/12 00:39:59;;;;;;;;;;;4.70;99.40;;;;;;5069740;28;19926;-72
2022/11/12 00:42:25;;;;;;;;;;;4.60;99.30;;;;;;5069579;28;19920;-74
2022/11/12 00:44:50;;;;;;;;;;;4.60;99.50;;;;;;5068803;28;19923;-73
2022/11/12 00:47:16;;;;;;;;;;;4.50;99.30;;;;;;5069282;28;19912;-72
2022/11/12 00:49:41;;;;;;;;;;;4.50;99.30;;;;;;5071347;28;19921;-73
2022/11/12 00:52:07;;;;;;;;;;;4.40;99.30;;;;;;5069512;28;19913;-72
2022/11/12 00:54:32;;;;;;;;;;;4.30;99.30;;;;;;5070555;28;19912;-72
2022/11/12 00:56:58;;;;;;;;;;;4.30;99.40;;;;;;5075126;28;19916;-74
2022/11/12 00:59:23;;;;;;;;;;;4.20;99.30;;;;;;5066084;28;19960;-73
2022/11/12 01:01:48;;;;;;;;;;;4.10;99.30;;;;;;5065613;28;19916;-74
2022/11/12 01:04:14;;;;;;;;;;;4.10;99.30;;;;;;5067045;28;19916;-72
2022/11/12 01:06:39;;;;;;;;;;;4.10;99.40;;;;;;5068777;28;20384;-72
2022/11/12 01:09:05;;;;;;;;;;;4.10;99.30;;;;;;5070572;28;19999;-77
2022/11/12 01:11:31;;;;;;;;;;;4.10;99.50;;;;;;5064277;28;19917;-73
2022/11/12 01:14:01;;;;;;;;;;;4.10;99.40;;;;;;5070779;28;19921;-77
2022/11/12 01:16:28;;;;;;;;;;;4.20;99.60;;;;;;5068310;28;19934;-72
2022/11/12 01:18:55;;;;;;;;;;;4.20;99.60;;;;;;5066981;28;19918;-72
2022/11/12 01:21:21;;;;;;;;;;;4.30;99.60;;;;;;5068993;28;19912;-71
2022/11/12 01:23:46;;;;;;;;;;;4.30;99.60;;;;;;5068617;28;19917;-72
2022/11/12 01:26:13;;;;;;;;;;;4.40;99.70;;;;;;5077106;28;19920;-73
2022/11/12 01:28:39;;;;;;;;;;;4.30;99.50;;;;;;5069113;28;19912;-72
2022/11/12 01:31:16;;;;;;;;;;;4.40;99.60;;;;;;5067170;28;19966;-75
2022/11/12 01:33:42;;;;;;;;;;;4.30;99.40;;;;;;5061145;28;19928;-73
2022/11/12 01:36:08;;;;;;;;;;;4.30;99.40;;;;;;5067660;28;19916;-73
2022/11/12 01:38:34;;;;;;;;;;;4.30;99.50;;;;;;5068747;28;19918;-72
2022/11/12 01:41:00;;;;;;;;;;;4.20;99.40;;;;;;5067026;28;19943;-72
2022/11/12 01:43:25;;;;;;;;;;;4.20;99.40;;;;;;5066495;28;19912;-74
2022/11/12 01:45:51;;;;;;;;;;;4.10;99.30;;;;;;5069613;28;19920;-71
2022/11/12 01:48:24;;;;;;;;;;;4.10;99.30;;;;;;5065158;28;20008;-72
2022/11/12 01:50:49;;;;;;;;;;;4.00;99.40;;;;;;5071884;28;19962;-72
2022/11/12 01:53:15;;;;;;;;;;;3.90;99.20;;;;;;5068789;28;19916;-72
2022/11/12 01:55:40;;;;;;;;;;;3.90;99.30;;;;;;5068777;28;19913;-72
2022/11/12 01:58:06;;;;;;;;;;;4.00;99.40;;;;;;5063970;28;19913;-72
2022/11/12 02:00:31;;;;;;;;;;;4.00;99.40;;;;;;5066665;28;19973;-71
2022/11/12 02:02:57;;;;;;;;;;;4.00;99.40;;;;;;5064041;28;19936;-72
2022/11/12 02:05:23;;;;;;;;;;;3.90;99.30;;;;;;5067553;28;19958;-72
2022/11/12 02:07:50;;;;;;;;;;;3.90;99.30;;;;;;5070067;28;19916;-73
2022/11/12 02:10:15;;;;;;;;;;;3.80;99.30;;;;;;5060841;28;20338;-73
2022/11/12 02:15:25;;;;;;;;;;;3.80;99.30;;;;;;5067520;28;19959;-71
2022/11/12 02:17:51;;;;;;;;;;;3.70;99.30;;;;;;5066839;28;19967;-72
2022/11/12 02:20:17;;;;;;;;;;;3.70;99.30;;;;;;5066619;28;19965;-72
2022/11/12 02:22:43;;;;;;;;;;;3.60;99.30;;;;;;5059385;28;19913;-74
2022/11/12 02:25:11;;;;;;;;;;;3.60;99.40;;;;;;5069418;28;19916;-71
2022/11/12 02:27:37;;;;;;;;;;;3.60;99.30;;;;;;5065492;28;19923;-73
2022/11/12 02:30:02;;;;;;;;;;;3.50;99.30;;;;;;5067442;28;19917;-72
2022/11/12 02:32:28;;;;;;;;;;;3.60;99.40;;;;;;5072269;28;19912;-72
2022/11/12 02:34:53;;;;;;;;;;;3.60;99.50;;;;;;5068244;28;20002;-72
2022/11/12 02:37:18;;;;;;;;;;;3.60;99.30;;;;;;5069466;28;19913;-74
2022/11/12 02:39:44;;;;;;;;;;;3.60;99.40;;;;;;5071865;28;19931;-72
2022/11/12 02:42:09;;;;;;;;;;;3.60;99.50;;;;;;5068782;28;20258;-72
2022/11/12 02:44:35;;;;;;;;;;;3.60;99.40;;;;;;5071078;28;19960;-73
2022/11/12 02:47:00;;;;;;;;;;;3.60;99.50;;;;;;5071187;28;19924;-71
2022/11/12 02:49:25;;;;;;;;;;;3.60;99.30;;;;;;5073293;28;20371;-72
2022/11/12 02:51:51;;;;;;;;;;;3.80;99.70;;;;;;5073564;28;19927;-71
2022/11/12 02:54:16;;;;;;;;;;;3.80;99.70;;;;;;5075780;28;19940;-72
2022/11/12 02:56:41;;;;;;;;;;;4.00;99.80;;;;;;5069995;28;19923;-73
2022/11/12 02:59:07;;;;;;;;;;;4.10;99.80;;;;;;5066518;28;19912;-72
2022/11/12 03:01:32;;;;;;;;;;;4.10;99.80;;;;;;5070478;28;20320;-72
2022/11/12 03:03:58;;;;;;;;;;;4.30;99.90;;;;;;5073307;28;19920;-72
2022/11/12 03:06:23;;;;;;;;;;;4.40;99.80;;;;;;5070495;28;19959;-72
2022/11/12 03:08:49;;;;;;;;;;;4.40;99.90;;;;;;5065384;28;20494;-72
2022/11/12 03:11:15;;;;;;;;;;;4.40;99.70;;;;;;5068720;28;20489;-71
2022/11/12 03:13:41;;;;;;;;;;;4.40;99.70;;;;;;5075460;28;19928;-72
2022/11/12 03:16:07;;;;;;;;;;;4.50;99.80;;;;;;5075168;28;20246;-72
2022/11/12 03:18:32;;;;;;;;;;;4.40;99.60;;;;;;5073984;28;19923;-72
2022/11/12 03:20:58;;;;;;;;;;;4.40;99.60;;;;;;5077658;28;20015;-71
2022/11/12 03:23:24;;;;;;;;;;;4.30;99.50;;;;;;5069801;28;20007;-72
2022/11/12 03:25:50;;;;;;;;;;;4.40;99.60;;;;;;5077173;28;19912;-71
2022/11/12 03:28:15;;;;;;;;;;;4.40;99.70;;;;;;5078619;28;19912;-72
2022/11/12 03:30:41;;;;;;;;;;;4.50;99.70;;;;;;5072114;28;20372;-71
2022/11/12 03:33:07;;;;;;;;;;;4.30;99.50;;;;;;5068642;28;20280;-71
2022/11/12 03:35:33;;;;;;;;;;;4.40;99.70;;;;;;5074206;28;19912;-72
2022/11/12 03:37:59;;;;;;;;;;;4.30;99.50;;;;;;5070142;28;19920;-71
2022/11/12 03:40:25;;;;;;;;;;;4.20;99.40;;;;;;5070167;28;19943;-72
2022/11/12 03:42:51;;;;;;;;;;;4.20;99.40;;;;;;5069179;28;20385;-71
2022/11/12 03:45:17;;;;;;;;;;;4.20;99.50;;;;;;5067488;28;19920;-73
2022/11/12 03:47:43;;;;;;;;;;;4.20;99.40;;;;;;5077915;28;19912;-72
2022/11/12 03:50:09;;;;;;;;;;;4.10;99.30;;;;;;5072164;28;19912;-73
2022/11/12 03:52:34;;;;;;;;;;;4.00;99.30;;;;;;5067597;28;19912;-71
2022/11/12 03:55:00;;;;;;;;;;;4.00;99.20;;;;;;5068499;28;20470;-71
2022/11/12 03:57:25;;;;;;;;;;;4.00;99.40;;;;;;5073505;28;19905;-71
2022/11/12 03:59:51;;;;;;;;;;;4.00;99.30;;;;;;5070916;28;20372;-71
2022/11/12 04:02:16;;;;;;;;;;;3.80;99.20;;;;;;5071928;28;19921;-71
2022/11/12 04:10:10;;;;;;;;;;;3.60;99.10;;;;;;5063629;28;19966;-74
2022/11/12 04:15:19;;;;;;;;;;;3.80;99.50;;;;;;5065812;28;20322;-74
2022/11/12 04:23:13;;;;;;;;;;;3.60;99.30;;;;;;5067116;28;19934;-74
2022/11/12 04:28:23;;;;;;;;;;;3.50;99.10;;;;;;5071081;28;20339;-73
2022/11/12 04:30:48;;;;;;;;;;;3.50;99.40;;;;;;5067265;28;19912;-73
2022/11/12 04:33:13;;;;;;;;;;;3.60;99.60;;;;;;5068444;28;19916;-71
2022/11/12 04:35:39;;;;;;;;;;;3.60;99.30;;;;;;5071290;28;19916;-71
2022/11/12 04:38:04;;;;;;;;;;;3.60;99.30;;;;;;5073572;28;20304;-72
2022/11/12 04:45:59;;;;;;;;;;;3.40;99.20;;;;;;5074429;28;19968;-71
2022/11/12 04:48:25;;;;;;;;;;;3.40;99.40;;;;;;5070709;28;19917;-72
2022/11/12 04:50:55;;;;;;;;;;;3.50;99.50;;;;;;5070275;28;19935;-72
2022/11/12 04:53:21;;;;;;;;;;;3.40;99.30;;;;;;5070776;28;19909;-74
2022/11/12 04:55:50;;;;;;;;;;;3.40;99.30;;;;;;5065850;28;19913;-71
2022/11/12 04:58:15;;;;;;;;;;;3.40;99.40;;;;;;5068606;28;19916;-71
2022/11/12 05:00:41;;;;;;;;;;;3.60;99.60;;;;;;5069582;28;20005;-72
2022/11/12 05:03:06;;;;;;;;;;;3.50;99.50;;;;;;5072784;28;19909;-72
2022/11/12 05:05:31;;;;;;;;;;;3.40;99.30;;;;;;5070576;28;19951;-73
2022/11/12 05:07:58;;;;;;;;;;;3.50;99.50;;;;;;5072915;28;19995;-72
2022/11/12 05:10:24;;;;;;;;;;;3.60;99.50;;;;;;5065893;28;19975;-71
2022/11/12 05:12:49;;;;;;;;;;;3.40;99.20;;;;;;5083452;28;19912;-73
2022/11/12 05:15:14;;;;;;;;;;;3.40;99.50;;;;;;5068570;28;20322;-71
2022/11/12 05:17:43;;;;;;;;;;;3.50;99.50;;;;;;5069940;28;19920;-74
2022/11/12 05:20:12;;;;;;;;;;;3.50;99.40;;;;;;5068720;28;19917;-74
2022/11/12 05:22:38;;;;;;;;;;;3.50;99.50;;;;;;5068200;28;19913;-73
2022/11/12 05:25:04;;;;;;;;;;;3.60;99.60;;;;;;5067034;28;20011;-72
2022/11/12 05:27:29;;;;;;;;;;;3.70;99.50;;;;;;5069093;28;19958;-72
2022/11/12 05:29:54;;;;;;;;;;;3.80;99.60;;;;;;5068571;28;20277;-70
2022/11/12 05:32:20;;;;;;;;;;;3.70;99.50;;;;;;5068311;28;20383;-70
2022/11/12 05:34:45;;;;;;;;;;;3.80;99.60;;;;;;5070817;28;19909;-69
2022/11/12 05:37:11;;;;;;;;;;;3.60;99.30;;;;;;5068835;28;19970;-71
2022/11/12 05:39:37;;;;;;;;;;;3.60;99.30;;;;;;5065172;28;19917;-70
2022/11/12 05:42:02;;;;;;;;;;;3.60;99.30;;;;;;5065311;28;19932;-72
2022/11/12 05:44:28;;;;;;;;;;;3.50;99.30;;;;;;5067820;28;19912;-70
2022/11/12 05:46:54;;;;;;;;;;;3.50;99.30;;;;;;5066412;28;20058;-73
2022/11/12 05:49:19;;;;;;;;;;;3.50;99.40;;;;;;5061949;28;19916;-74
2022/11/12 05:51:44;;;;;;;;;;;3.30;99.00;;;;;;5062852;28;19924;-71
2022/11/12 05:54:10;;;;;;;;;;;3.20;99.10;;;;;;5069758;28;19909;-70
2022/11/12 05:56:36;;;;;;;;;;;3.30;99.30;;;;;;5061636;28;20314;-70
2022/11/12 05:59:03;;;;;;;;;;;3.30;99.20;;;;;;5060746;28;19916;-72
2022/11/12 06:01:28;;;;;;;;;;;3.30;99.40;;;;;;5068498;28;19923;-70
2022/11/12 06:03:54;;;;;;;;;;;3.40;99.50;;;;;;5068453;28;19912;-70
2022/11/12 06:06:19;;;;;;;;;;;3.40;99.40;;;;;;5070237;28;20371;-72
2022/11/12 06:08:45;;;;;;;;;;;3.20;99.10;;;;;;5065905;28;19933;-75
2022/11/12 06:11:10;;;;;;;;;;;3.20;99.20;;;;;;5068106;28;20253;-70
2022/11/12 06:13:36;;;;;;;;;;;3.10;99.20;;;;;;5066686;28;20333;-70
2022/11/12 06:16:01;;;;;;;;;;;3.10;99.20;;;;;;5069608;28;19920;-70
2022/11/12 06:18:27;;;;;;;;;;;3.10;99.20;;;;;;5068909;28;19917;-71
2022/11/12 06:23:36;;;;;;;;;;;3.00;99.20;;;;;;5069878;28;19995;-72
2022/11/12 06:26:02;;;;;;;;;;;3.10;99.50;;;;;;5067596;28;20356;-72
2022/11/12 06:28:27;;;;;;;;;;;3.10;99.20;;;;;;5068436;28;20245;-72
2022/11/12 06:30:52;;;;;;;;;;;3.10;99.40;;;;;;5067372;28;20376;-72
2022/11/12 06:33:18;;;;;;;;;;;3.30;99.50;;;;;;5065667;28;19932;-74
2022/11/12 06:35:43;;;;;;;;;;;3.20;99.40;;;;;;5058251;28;19921;-72
2022/11/12 06:38:09;;;;;;;;;;;3.10;99.10;;;;;;5069823;28;19909;-71
2022/11/12 06:40:34;;;;;;;;;;;3.20;99.40;;;;;;5070720;28;19928;-73
2022/11/12 06:43:00;;;;;;;;;;;3.40;99.50;;;;;;5063014;28;19962;-72
2022/11/12 06:45:25;;;;;;;;;;;3.20;99.10;;;;;;5067675;28;19947;-70
2022/11/12 06:47:51;;;;;;;;;;;3.30;99.30;;;;;;5066489;28;19928;-73
2022/11/12 06:50:16;;;;;;;;;;;3.40;99.50;;;;;;5071309;28;20363;-71
2022/11/12 06:52:42;;;;;;;;;;;3.50;99.40;;;;;;5066384;28;20360;-72
2022/11/12 06:55:07;;;;;;;;;;;3.40;99.20;;;;;;5075575;28;19919;-70
2022/11/12 06:57:33;;;;;;;;;;;3.50;99.30;;;;;;5065195;28;19913;-71
2022/11/12 06:59:58;;;;;;;;;;;3.60;99.40;;;;;;5069422;28;19912;-71
2022/11/12 07:02:24;;;;;;;;;;;3.50;99.10;;;;;;5063055;28;20376;-70
2022/11/12 07:04:49;;;;;;;;;;;3.50;99.10;;;;;;5064842;28;20349;-72
2022/11/12 07:07:15;;;;;;;;;;;3.60;99.20;;;;;;5070116;28;19916;-71
2022/11/12 07:09:40;;;;;;;;;;;3.50;99.10;;;;;;5066001;28;19923;-71
2022/11/12 07:12:06;;;;;;;;;;;3.40;98.80;;;;;;5072524;28;19917;-76
2022/11/12 07:14:31;;;;;;;;;;;3.40;99.00;;;;;;5067832;28;20007;-72
2022/11/12 07:16:57;;;;;;;;;;;3.40;99.10;;;;;;5084317;28;19919;-71
2022/11/12 07:19:22;;;;;;;;;;;3.40;99.00;;;;;;5071542;28;19999;-70
2022/11/12 07:21:48;;;;;;;;;;;3.30;98.90;;;;;;5084889;28;19920;-73
2022/11/12 07:24:13;;;;;;;;;;;3.40;99.10;;;;;;5069647;28;19931;-71
2022/11/12 07:26:38;;;;;;;;;;;3.50;99.10;;;;;;5071648;28;19912;-71
2022/11/12 07:29:06;;;;;;;;;;;3.40;98.90;;;;;;5067934;28;19920;-71
2022/11/12 07:31:31;;;;;;;;;;;3.30;98.90;;;;;;5069600;28;19916;-70
2022/11/12 07:33:57;;;;;;;;;;;3.30;99.00;;;;;;5072996;28;19921;-70
2022/11/12 07:36:22;;;;;;;;;;;3.30;98.90;;;;;;5072638;28;19913;-70
2022/11/12 07:38:50;;;;;;;;;;;3.20;98.80;;;;;;5070563;28;19920;-70
2022/11/12 07:41:16;;;;;;;;;;;3.30;99.10;;;;;;5069705;28;20293;-71
2022/11/12 07:43:44;;;;;;;;;;;3.20;99.00;;;;;;5058123;28;20255;-71
2022/11/12 07:46:13;;;;;;;;;;;3.20;98.90;;;;;;5062156;28;19921;-70
2022/11/12 07:48:39;;;;;;;;;;;3.20;98.90;;;;;;5059468;28;20387;-71
2022/11/12 07:51:14;;;;;;;;;;;3.20;99.00;;;;;;5068399;28;19921;-70
2022/11/12 07:53:40;;;;;;;;;;;3.20;99.00;;;;;;5069671;28;20006;-69
2022/11/12 07:56:08;;;;;;;;;;;3.20;98.90;;;;;;5071320;28;20436;-69
2022/11/12 07:58:33;;;;;;;;;;;3.20;99.00;;;;;;5067932;28;20003;-70
2022/11/12 08:01:08;;;;;;;;;;;3.10;99.00;;;;;;5070870;28;19928;-69
2022/11/12 08:03:34;;;;;;;;;;;3.10;99.00;;;;;;5067606;28;19958;-69
2022/11/12 08:06:00;;;;;;;;;;;3.20;99.00;;;;;;5072711;28;20353;-69
2022/11/12 08:08:26;;;;;;;;;;;3.20;99.10;;;;;;5072725;28;19973;-69
2022/11/12 08:10:55;;;;;;;;;;;3.20;99.10;;;;;;5088435;28;19920;-70
2022/11/12 08:13:20;;;;;;;;;;;3.40;99.10;;;;;;5079881;28;19913;-70
2022/11/12 08:15:46;;;;;;;;;;;3.40;99.00;;;;;;5072711;28;19965;-71
2022/11/12 08:18:11;;;;;;;;;;;3.40;99.10;;;;;;5073847;28;19977;-70
2022/11/12 08:20:37;;;;;;;;;;;3.50;99.00;;;;;;5072069;28;19920;-69
2022/11/12 08:23:02;;;;;;;;;;;3.50;99.10;;;;;;5072901;28;19935;-69
2022/11/12 08:25:28;;;;;;;;;;;3.60;99.20;;;;;;5076480;28;19958;-68
2022/11/12 08:27:57;;;;;;;;;;;3.80;99.20;;;;;;5078221;28;20350;-69
2022/11/12 08:30:22;;;;;;;;;;;3.90;99.20;;;;;;5063140;28;20349;-70
2022/11/12 08:32:53;;;;;;;;;;;4.00;99.20;;;;;;5065104;28;19912;-69
2022/11/12 08:35:19;;;;;;;;;;;4.10;99.20;;;;;;5065860;28;19919;-69
2022/11/12 08:37:44;;;;;;;;;;;4.20;99.30;;;;;;5059726;28;19916;-70
2022/11/12 08:40:10;;;;;;;;;;;4.50;99.40;;;;;;5061408;28;20318;-69
2022/11/12 08:42:35;;;;;;;;;;;4.60;99.10;;;;;;5059210;28;19924;-69
2022/11/12 08:45:01;;;;;;;;;;;4.60;99.00;;;;;;5059330;28;20049;-74
2022/11/12 08:47:26;;;;;;;;;;;4.60;99.00;;;;;;5057877;28;20275;-70
2022/11/12 08:49:52;;;;;;;;;;;4.60;99.00;;;;;;5057738;28;20015;-72
2022/11/12 08:52:17;;;;;;;;;;;4.70;99.00;;;;;;5063414;28;19919;-72
2022/11/12 08:54:43;;;;;;;;;;;4.70;98.80;;;;;;5060642;28;19931;-71
2022/11/12 08:57:08;;;;;;;;;;;4.60;98.80;;;;;;5060634;28;19959;-70
2022/11/12 08:59:34;;;;;;;;;;;4.70;98.90;;;;;;5059035;28;20046;-71
2022/11/12 09:01:59;;;;;;;;;;;4.70;98.80;;;;;;5054324;28;19929;-75
2022/11/12 09:04:25;;;;;;;;;;;4.80;98.90;;;;;;5057931;28;20295;-70
2022/11/12 09:06:50;;;;;;;;;;;4.80;98.90;;;;;;5059078;28;20452;-70
2022/11/12 09:09:16;;;;;;;;;;;4.90;98.80;;;;;;5060718;28;19913;-71
2022/11/12 09:11:41;;;;;;;;;;;5.00;98.80;;;;;;5058286;28;20302;-72
2022/11/12 09:14:07;;;;;;;;;;;5.20;98.80;;;;;;5060422;28;20561;-70
2022/11/12 09:16:32;;;;;;;;;;;5.30;98.50;;;;;;5059035;28;19924;-70
2022/11/12 09:18:57;;;;;;;;;;;5.40;98.20;;;;;;5060518;28;19952;-73
2022/11/12 09:21:23;;;;;;;;;;;5.60;98.00;;;;;;5061223;28;19916;-70
2022/11/12 09:23:49;;;;;;;;;;;5.60;97.60;;;;;;5058766;28;20293;-70
2022/11/12 09:26:14;;;;;;;;;;;5.70;97.50;;;;;;5060840;28;19913;-71
2022/11/12 09:28:40;;;;;;;;;;;5.80;97.20;;;;;;5067153;28;20008;-70
2022/11/12 09:31:06;;;;;;;;;;;5.90;97.20;;;;;;5070407;28;19999;-71
2022/11/12 09:33:32;;;;;;;;;;;6.10;97.00;;;;;;5062182;28;20365;-70
2022/11/12 09:35:59;;;;;;;;;;;6.40;96.90;;;;;;5071067;28;19915;-72
2022/11/12 09:38:25;;;;;;;;;;;6.60;96.60;;;;;;5053511;28;20007;-71
2022/11/12 09:40:50;;;;;;;;;;;6.80;96.30;;;;;;5062687;28;20062;-71
2022/11/12 09:43:32;;;;;;;;;;;7.30;96.60;;;;;;5066797;28;19995;-73
2022/11/12 09:46:08;;;;;;;;;;;7.60;96.70;;;;;;5062630;28;19962;-71
2022/11/12 09:48:41;;;;;;;;;;;7.80;95.70;;;;;;5064125;28;19924;-72
2022/11/12 09:51:12;;;;;;;;;;;8.00;94.70;;;;;;5066793;28;19913;-70
2022/11/12 09:53:49;;;;;;;;;;;8.40;94.00;;;;;;5061166;28;19935;-71
2022/11/12 09:56:17;;;;;;;;;;;8.50;92.50;;;;;;5057760;28;20288;-71
2022/11/12 09:58:42;;;;;;;;;;;8.70;90.50;;;;;;5066070;28;19981;-71
2022/11/12 10:01:13;;;;;;;;;;;8.90;90.00;;;;;;5064438;28;20427;-71
2022/11/12 10:03:45;;;;;;;;;;;9.10;88.90;;;;;;5073391;28;20498;-71
2022/11/12 10:06:14;;;;;;;;;;;9.20;87.90;;;;;;5071466;28;19912;-74
2022/11/12 10:08:44;;;;;;;;;;;9.30;87.00;;;;;;5068719;28;20423;-74
2022/11/12 10:11:21;;;;;;;;;;;9.50;88.90;;;;;;5067413;28;19908;-69
2022/11/12 10:13:49;;;;;;;;;;;9.60;87.60;;;;;;5069201;28;19912;-69
2022/11/12 10:16:44;;;;;;;;;;;9.60;85.50;;;;;;5068897;28;20435;-69
2022/11/12 10:19:12;;;;;;;;;;;9.70;86.30;;;;;;5066284;28;19999;-71
2022/11/12 10:21:43;;;;;;;;;;;9.80;86.60;;;;;;5062401;28;20376;-70
2022/11/12 10:24:09;;;;;;;;;;;9.80;86.00;;;;;;5067511;28;19912;-71
2022/11/12 10:26:35;;;;;;;;;;;9.90;85.10;;;;;;5068170;28;20010;-70
2022/11/12 10:29:11;;;;;;;;;;;10.00;84.40;;;;;;5064384;28;20997;-70
2022/11/12 10:31:37;;;;;;;;;;;10.10;84.20;;;;;;5058845;28;19921;-71
2022/11/12 10:34:12;;;;;;;;;;;10.20;84.30;;;;;;5064969;28;19927;-69
2022/11/12 10:36:39;;;;;;;;;;;10.20;82.60;;;;;;5070780;28;20368;-70
2022/11/12 10:39:05;;;;;;;;;;;10.30;83.00;;;;;;5068262;28;19975;-68
2022/11/12 10:41:31;;;;;;;;;;;10.50;82.90;;;;;;5066260;28;21387;-69
2022/11/12 10:43:58;;;;;;;;;;;10.50;83.10;;;;;;5059062;28;19912;-69
2022/11/12 10:46:25;;;;;;;;;;;10.70;84.10;;;;;;5063706;28;20298;-71
2022/11/12 10:49:01;;;;;;;;;;;10.80;83.00;;;;;;5068624;28;20007;-73
2022/11/12 10:51:31;;;;;;;;;;;10.90;82.80;;;;;;5074897;28;20356;-70
2022/11/12 10:53:57;;;;;;;;;;;11.00;83.00;;;;;;5068806;28;20364;-70
2022/11/12 10:56:24;;;;;;;;;;;11.00;82.00;;;;;;5073074;28;19954;-70
2022/11/12 10:59:08;;;;;;;;;;;11.10;81.10;;;;;;5073087;28;19966;-70
2022/11/12 11:01:34;;;;;;;;;;;11.30;80.80;;;;;;5065178;28;19956;-69
2022/11/12 11:03:59;;;;;;;;;;;11.50;80.90;;;;;;5062502;28;19959;-70
2022/11/12 11:06:25;;;;;;;;;;;11.60;81.00;;;;;;5071685;28;19913;-70
2022/11/12 11:08:52;;;;;;;;;;;11.70;79.90;;;;;;5068115;28;19965;-68
2022/11/12 11:11:25;;;;;;;;;;;11.90;79.10;;;;;;5069614;28;20003;-68
2022/11/12 11:13:53;;;;;;;;;;;12.10;78.10;;;;;;5071431;28;20386;-67
2022/11/12 11:16:19;;;;;;;;;;;12.20;77.10;;;;;;5065595;28;19935;-69
2022/11/12 11:18:51;;;;;;;;;;;12.50;77.40;;;;;;5064761;28;19917;-67
2022/11/12 11:21:16;;;;;;;;;;;12.70;77.00;;;;;;5060609;28;20140;-68
2022/11/12 11:23:41;;;;;;;;;;;13.00;76.40;;;;;;5067372;28;19987;-69
2022/11/12 11:26:24;;;;;;;;;;;13.00;75.40;;;;;;5071407;28;20038;-67
2022/11/12 11:28:57;;;;;;;;;;;12.90;77.10;;;;;;5067236;28;20349;-67
2022/11/12 11:31:39;;;;;;;;;;;12.70;75.80;;;;;;5067623;28;19912;-70
2022/11/12 11:34:12;;;;;;;;;;;12.70;75.30;;;;;;5071858;28;20249;-68
2022/11/12 11:36:44;;;;;;;;;;;12.50;76.40;;;;;;5070709;28;19969;-68
2022/11/12 11:39:27;;;;;;;;;;;12.40;77.60;;;;;;5072244;28;20409;-68
2022/11/12 11:42:06;;;;;;;;;;;12.30;76.80;;;;;;5073766;28;20458;-71
2022/11/12 11:44:39;;;;;;;;;;;12.40;78.30;;;;;;5070825;28;19916;-71
2022/11/12 11:47:52;;;;;;;8.27;3.78;;;12.40;77.40;;;;;;5105074;27;20353;-68
2022/11/12 11:50:38;;;;;;;8.30;3.40;;;12.40;77.70;;;;;;5079220;28;20037;-67
2022/11/12 11:53:19;;;;;;;7.82;3.47;;;12.50;78.40;;;;;;5082977;28;20477;-67
2022/11/12 11:56:11;;;;;;;9.68;4.05;;;12.50;78.40;;;;;;5088777;28;20109;-69
2022/11/12 11:59:14;;;;;;;8.07;4.22;;;12.60;78.70;;;;;;5075025;28;20060;-66
2022/11/12 12:02:12;;;;;;;8.85;4.28;;;12.60;78.80;;;;;;5083632;28;20063;-67
2022/11/12 12:05:07;;;;;;;6.30;4.05;;;12.60;78.80;;;;;;5088034;28;20473;-66
2022/11/12 12:07:56;;;;;;;6.85;3.67;;;12.50;78.50;;;;;;5053418;28;20063;-68
2022/11/12 12:10:36;;;;;;;7.50;4.38;;;12.50;78.30;;;;;;5084572;28;20097;-68
2022/11/12 12:13:19;;;;;;;8.00;4.13;;;12.40;78.60;;;;;;5084979;28;20476;-69
2022/11/12 12:16:16;;;;;;;8.88;4.38;;;12.30;78.40;;;;;;5077914;28;20131;-67
2022/11/12 12:18:57;;;;;;;9.80;4.68;;;12.30;78.70;;;;;;5082476;28;20040;-68
2022/11/12 12:21:25;;;;;;;17.50;7.70;;;12.20;80.20;;;;;;5080936;28;20040;-67
2022/11/12 12:24:13;;;;;;;29.08;14.02;;;12.10;80.80;;;;;;5072661;28;20028;-67
2022/11/12 12:26:44;;;;;;;25.00;11.32;;;12.10;80.60;;;;;;5079920;28;20036;-67
2022/11/12 12:29:28;;;;;;;26.50;11.05;;;12.10;80.30;;;;;;5075128;28;20131;-67
2022/11/12 12:32:14;;;;;;;19.65;9.68;;;12.20;80.70;;;;;;5076416;28;20033;-67
2022/11/12 12:34:44;;;;;;;16.50;7.85;;;12.20;81.00;;;;;;5078754;28;20068;-68
2022/11/12 12:37:40;;;;;;;13.38;6.07;;;12.10;80.20;;;;;;5083336;28;20060;-69
2022/11/12 12:40:20;;;;;;;13.93;6.28;;;12.20;81.20;;;;;;5074840;28;20523;-67
2022/11/12 12:42:56;;;;;;;14.55;5.30;;;12.30;81.90;;;;;;5082912;28;20039;-66
2022/11/12 12:45:41;;;;;;;9.20;4.50;;;12.40;83.70;;;;;;5080280;28;20453;-66
2022/11/12 12:48:21;;;;;;;10.25;5.10;;;12.40;84.30;;;;;;5081639;28;20036;-67
2022/11/12 12:50:48;;;;;;;8.20;3.78;;;12.40;83.80;;;;;;5086270;28;20535;-69
2022/11/12 12:53:30;;;;;;;7.57;4.15;;;12.40;82.40;;;;;;5074184;28;20029;-66
2022/11/12 12:56:03;;;;;;;7.68;4.38;;;12.50;83.50;;;;;;5080187;28;20038;-66
2022/11/12 12:58:46;;;;;;;6.85;4.18;;;12.50;83.60;;;;;;5068747;28;20032;-66
2022/11/12 13:01:20;;;;;;;10.18;4.20;;;12.50;84.90;;;;;;5071233;28;20357;-67
2022/11/12 13:03:54;;;;;;;11.45;4.72;;;12.50;84.70;;;;;;5069172;28;20060;-66
2022/11/12 13:06:22;;;;;;;9.57;4.53;;;12.50;83.50;;;;;;5067898;28;20028;-67
2022/11/12 13:08:54;;;;;;;8.40;4.28;;;12.50;83.90;;;;;;5068003;28;20195;-67
2022/11/12 13:12:20;;;;;;;7.70;4.53;;;12.60;84.40;;;;;;5072217;28;20024;-69
2022/11/12 13:14:30;;;;;;;8.38;4.47;;;12.60;84.90;;;;;;5060705;28;20031;-67
2022/11/12 13:17:37;;;;;;;8.27;4.55;;;12.60;83.20;;;;;;5066471;28;20029;-67
2022/11/12 13:20:03;;;;;;;9.02;4.57;;;12.70;83.70;;;;;;5073458;28;20480;-66
2022/11/12 13:22:31;;;;;;;9.55;4.65;;;12.70;84.10;;;;;;5072704;28;20078;-68
2022/11/12 13:25:07;;;;;;;6.55;4.07;;;12.70;84.20;;;;;;5075451;28;20056;-67
2022/11/12 13:27:44;;;;;;;12.05;4.45;;;12.70;85.00;;;;;;5068561;28;20122;-67
2022/11/12 13:30:13;;;;;;;11.63;4.80;;;12.70;83.00;;;;;;5078201;28;20039;-66
2022/11/12 13:32:47;;;;;;;7.07;4.05;;;12.60;83.40;;;;;;5070815;28;20036;-69
2022/11/12 13:35:16;;;;;;;8.82;4.63;;;12.70;83.80;;;;;;5070690;28;20042;-66
2022/11/12 13:38:14;;;;;;;7.88;4.40;;;12.70;84.40;;;;;;5075498;28;20170;-70
2022/11/12 13:40:45;;;;;;;9.77;4.65;;;12.70;85.90;;;;;;5072147;28;20024;-66
2022/11/12 13:43:14;;;;;;;9.50;5.38;;;12.60;84.20;;;;;;5061871;28;20052;-66
2022/11/12 13:46:05;;;;;;;7.72;4.80;;;12.70;85.00;;;;;;5069719;28;20051;-66
2022/11/12 13:48:46;;;;;;;37.13;31.17;;;12.70;84.90;;;;;;5058872;28;20044;-66
2022/11/12 13:51:19;;;;;;;30.05;24.65;;;12.60;82.70;;;;;;5069157;28;20029;-67
2022/11/12 13:53:45;;;;;;;22.02;17.20;;;12.60;83.90;;;;;;5069279;28;20033;-67
2022/11/12 13:56:22;;;;;;;9.35;6.05;;;12.80;83.40;;;;;;5070548;28;20384;-67
2022/11/12 13:58:48;;;;;;;12.55;8.30;;;12.90;83.70;;;;;;5075209;28;20468;-67
2022/11/12 14:01:19;;;;;;;11.20;7.22;;;13.10;83.80;;;;;;5069342;28;20035;-67
2022/11/12 14:03:48;;;;;;;11.65;7.00;;;13.20;83.30;;;;;;5064113;28;20033;-68
2022/11/12 14:06:27;;;;;;;9.25;5.95;;;13.20;81.10;;;;;;5067153;28;20127;-68
2022/11/12 14:09:11;;;;;;;9.55;5.50;;;13.20;81.30;;;;;;5064572;28;20040;-70
2022/11/12 14:11:52;;;;;;;8.45;4.85;;;13.10;82.20;;;;;;5065898;28;20055;-68
2022/11/12 14:14:38;;;;;;;8.38;5.15;;;13.00;82.10;;;;;;5069538;28;20029;-73
2022/11/12 14:17:13;;;;;;;8.27;4.93;;;12.90;82.70;;;;;;5064539;28;20040;-67
2022/11/12 14:20:11;;;;;;;10.45;4.32;;;12.80;84.40;;;;;;5069337;28;20060;-68
2022/11/12 14:22:42;;;;;;;11.15;6.00;;;12.60;84.30;;;;;;5065050;28;20464;-73
2022/11/12 14:25:20;;;;;;;7.50;4.35;;;12.50;83.50;;;;;;5070093;28;20037;-67
2022/11/12 14:27:47;;;;;;;10.15;4.88;;;12.30;83.60;;;;;;5072412;28;20045;-69
2022/11/12 14:30:16;;;;;;;10.75;4.57;;;12.20;84.40;;;;;;5065255;28;20026;-67
2022/11/12 14:32:47;;;;;;;12.68;5.28;;;12.00;85.00;;;;;;5064356;28;20166;-70
2022/11/12 14:35:16;;;;;;;10.10;4.80;;;11.90;85.50;;;;;;5061305;28;20557;-67
2022/11/12 14:37:50;;;;;;;9.88;4.75;;;11.60;86.00;;;;;;5072623;28;20043;-71
2022/11/12 14:40:17;;;;;;;10.23;6.15;;;11.50;86.40;;;;;;5064101;28;20031;-69
2022/11/12 14:42:43;;;;;;;10.13;7.00;;;11.30;86.70;;;;;;5064579;28;20044;-67